Time;durP1;ratioP1;P1;durP2;ratioP2;P2;SDS_P1;SDS_P2;PMS_P1;PMS_P2;Temp;Humidity;BMP_temperature;BMP_pressure;BME280_temperature;BME280_humidity;BME280_pressure;Samples;Min_cycle;Max_cycle;Signal;HPM_P1;HPM_P2
2023/08/29 00:02:30;;;;;;;;;;;23.50;64.50;;;;;;8539729;27;19934;-49
2023/08/29 00:06:31;;;;;;;;;;;23.50;64.50;;;;;;8521304;27;19918;-52
2023/08/29 00:10:31;;;;;;;;;;;23.50;64.60;;;;;;8539207;27;19919;-50
2023/08/29 00:14:32;;;;;;;;;;;23.50;64.70;;;;;;8543154;27;19919;-52
2023/08/29 00:18:33;;;;;;;;;;;23.50;64.80;;;;;;8546120;27;19938;-50
2023/08/29 00:22:33;;;;;;;;;;;23.50;64.90;;;;;;8546040;27;19917;-51
2023/08/29 00:26:34;;;;;;;;;;;23.50;64.80;;;;;;8526180;27;19911;-50
2023/08/29 00:30:38;;;;;;;;;;;23.50;64.90;;;;;;8546045;27;19911;-49
2023/08/29 00:34:38;;;;;;;;;;;23.50;64.90;;;;;;8545799;27;19911;-51
2023/08/29 00:38:39;;;;;;;;;;;23.50;64.70;;;;;;8545810;27;19911;-51
2023/08/29 00:42:39;;;;;;;;;;;23.50;64.50;;;;;;8545323;27;20017;-50
2023/08/29 00:46:40;;;;;;;;;;;23.50;64.50;;;;;;8544673;27;19933;-52
2023/08/29 00:50:41;;;;;;;;;;;23.50;64.50;;;;;;8545395;27;19918;-51
2023/08/29 00:54:41;;;;;;;;;;;23.50;64.80;;;;;;8544788;27;19919;-50
2023/08/29 00:58:42;;;;;;;;;;;23.40;64.80;;;;;;8524946;27;20272;-52
2023/08/29 01:02:43;;;;;;;;;;;23.40;64.80;;;;;;8545084;27;19926;-50
2023/08/29 01:06:43;;;;;;;;;;;23.50;64.90;;;;;;8544607;27;19923;-52
2023/08/29 01:10:52;;;;;;;;;;;23.40;64.80;;;;;;8544632;27;20303;-51
2023/08/29 01:15:03;;;;;;;;;;;23.50;64.80;;;;;;8545395;27;19914;-52
2023/08/29 01:19:06;;;;;;;;;;;23.40;64.80;;;;;;8543368;27;19923;-52
2023/08/29 01:23:08;;;;;;;;;;;23.50;64.90;;;;;;8543835;27;19963;-50
2023/08/29 01:27:08;;;;;;;;;;;23.50;64.90;;;;;;8541706;27;19926;-50
2023/08/29 01:31:10;;;;;;;;;;;23.50;64.80;;;;;;8544228;27;19958;-52
2023/08/29 01:35:13;;;;;;;;;;;23.50;64.70;;;;;;8544208;27;19926;-51
2023/08/29 01:39:14;;;;;;;;;;;23.50;64.60;;;;;;8543350;27;19988;-51
2023/08/29 01:43:14;;;;;;;;;;;23.50;64.50;;;;;;8544059;27;19918;-50
2023/08/29 01:47:15;;;;;;;;;;;23.50;64.50;;;;;;8542935;27;20341;-50
2023/08/29 01:51:16;;;;;;;;;;;23.50;64.50;;;;;;8542696;27;19968;-52
2023/08/29 01:55:16;;;;;;;;;;;23.50;64.70;;;;;;8542693;27;19915;-51
2023/08/29 01:59:17;;;;;;;;;;;23.50;64.80;;;;;;8542680;27;19934;-48
2023/08/29 02:03:18;;;;;;;;;;;23.50;64.90;;;;;;8542402;27;20313;-51
2023/08/29 02:07:18;;;;;;;;;;;23.40;64.90;;;;;;8542994;27;19923;-49
2023/08/29 02:11:19;;;;;;;;;;;23.40;65.00;;;;;;8541759;27;19991;-51
2023/08/29 02:15:19;;;;;;;;;;;23.40;64.90;;;;;;8542214;27;20278;-51
2023/08/29 02:19:20;;;;;;;;;;;23.40;65.00;;;;;;8517688;27;19966;-51
2023/08/29 02:23:20;;;;;;;;;;;23.40;64.90;;;;;;8508265;27;19926;-51
2023/08/29 02:27:21;;;;;;;;;;;23.40;64.90;;;;;;8506932;27;20405;-51
2023/08/29 02:31:22;;;;;;;;;;;23.40;65.00;;;;;;8507462;27;19959;-51
2023/08/29 02:35:22;;;;;;;;;;;23.40;64.90;;;;;;8507020;27;19915;-50
2023/08/29 02:39:23;;;;;;;;;;;23.40;64.90;;;;;;8487876;27;19911;-49
2023/08/29 02:43:23;;;;;;;;;;;23.40;65.00;;;;;;8506928;27;19923;-49
2023/08/29 02:47:24;;;;;;;;;;;23.40;65.10;;;;;;8506937;27;20344;-50
2023/08/29 02:51:24;;;;;;;;;;;23.40;65.20;;;;;;8507363;27;20256;-51
2023/08/29 02:55:25;;;;;;;;;;;23.40;65.20;;;;;;8506384;27;19972;-50
2023/08/29 02:59:26;;;;;;;;;;;23.40;65.20;;;;;;8506468;27;21032;-49
2023/08/29 03:03:26;;;;;;;;;;;23.30;65.10;;;;;;8506308;27;19916;-51
2023/08/29 03:07:27;;;;;;;;;;;23.40;65.00;;;;;;8506230;27;20281;-51
2023/08/29 03:11:28;;;;;;;;;;;23.40;64.90;;;;;;8506417;27;19919;-52
2023/08/29 03:15:32;;;;;;;;;;;23.40;65.70;;;;;;8497557;27;19959;-51
2023/08/29 03:19:33;;;;;;;;;;;23.40;65.00;;;;;;8498083;27;19924;-52
2023/08/29 03:23:35;;;;;;;;;;;23.40;65.20;;;;;;8506286;27;19971;-52
2023/08/29 03:27:35;;;;;;;;;;;23.40;66.00;;;;;;8505651;27;19911;-50
2023/08/29 03:31:36;;;;;;;;;;;23.40;65.10;;;;;;8506350;27;20026;-51
2023/08/29 03:35:36;;;;;;;;;;;23.30;65.00;;;;;;8505606;27;20281;-52
2023/08/29 03:39:37;;;;;;;;;;;23.40;65.00;;;;;;8505463;27;19982;-52
2023/08/29 03:43:37;;;;;;;;;;;23.40;65.10;;;;;;8505658;27;19907;-50
2023/08/29 03:47:39;;;;;;;;;;;23.40;65.10;;;;;;8505821;27;20431;-50
2023/08/29 03:51:39;;;;;;;;;;;23.40;65.00;;;;;;8512578;27;19915;-48
2023/08/29 03:55:40;;;;;;;;;;;23.40;65.00;;;;;;8512950;27;19919;-50
2023/08/29 03:59:40;;;;;;;;;;;23.40;65.10;;;;;;8512548;27;20473;-49
2023/08/29 04:03:41;;;;;;;;;;;23.40;65.10;;;;;;8511911;27;19911;-50
2023/08/29 04:07:42;;;;;;;;;;;23.30;65.10;;;;;;8511987;27;19938;-51
2023/08/29 04:11:43;;;;;;;;;;;23.30;65.10;;;;;;8493685;27;19926;-51
2023/08/29 04:15:43;;;;;;;;;;;23.30;65.10;;;;;;8512153;27;19919;-51
2023/08/29 04:19:44;;;;;;;;;;;23.30;65.00;;;;;;8511511;27;19971;-49
2023/08/29 04:23:44;;;;;;;;;;;23.40;65.10;;;;;;8511558;27;20524;-50
2023/08/29 04:27:46;;;;;;;;;;;23.40;65.00;;;;;;8511695;27;20260;-50
2023/08/29 04:31:47;;;;;;;;;;;23.40;65.20;;;;;;8511603;27;19919;-50
2023/08/29 04:35:51;;;;;;;;;;;23.30;65.20;;;;;;8511134;27;19956;-52
2023/08/29 04:39:52;;;;;;;;;;;23.30;65.20;;;;;;8510892;27;19911;-50
2023/08/29 04:43:52;;;;;;;;;;;23.30;65.20;;;;;;8510871;27;19915;-51
2023/08/29 04:47:53;;;;;;;;;;;23.30;65.20;;;;;;8510914;27;20023;-52
2023/08/29 04:51:54;;;;;;;;;;;23.30;65.20;;;;;;8510990;27;20582;-50
2023/08/29 04:56:02;;;;;;;;;;;23.30;65.20;;;;;;8510576;27;19942;-52
2023/08/29 05:00:04;;;;;;;;;;;23.30;65.10;;;;;;8509436;27;20352;-50
2023/08/29 05:04:05;;;;;;;;;;;23.30;65.20;;;;;;8510324;27;20389;-52
2023/08/29 05:08:06;;;;;;;;;;;23.30;65.20;;;;;;8491477;27;19927;-52
2023/08/29 05:12:10;;;;;;;;;;;23.30;65.10;;;;;;8510885;27;19962;-53
2023/08/29 05:16:10;;;;;;;;;;;23.30;65.10;;;;;;8510109;27;19923;-52
2023/08/29 05:20:11;;;;;;;;;;;23.40;65.10;;;;;;8541288;27;19983;-52
2023/08/29 05:24:11;;;;;;;;;;;23.30;65.10;;;;;;8544337;27;20367;-51
2023/08/29 05:28:12;;;;;;;;;;;23.30;65.10;;;;;;8543271;27;19921;-52
2023/08/29 05:32:12;;;;;;;;;;;23.30;65.20;;;;;;8544126;27;19911;-52
2023/08/29 05:36:13;;;;;;;;;;;23.30;65.20;;;;;;8544241;27;20377;-52
2023/08/29 05:40:13;;;;;;;;;;;23.40;65.20;;;;;;8543116;27;19914;-51
2023/08/29 05:44:14;;;;;;;;;;;23.30;65.20;;;;;;8543293;27;19910;-49
2023/08/29 05:48:15;;;;;;;;;;;23.30;65.10;;;;;;8543682;27;20595;-50
2023/08/29 05:52:16;;;;;;;;;;;23.30;65.20;;;;;;8524901;27;20299;-49
2023/08/29 05:56:16;;;;;;;;;;;23.30;65.30;;;;;;8542068;27;19938;-52
2023/08/29 06:00:18;;;;;;;;;;;23.30;65.30;;;;;;8542759;27;20025;-50
2023/08/29 06:04:19;;;;;;;;;;;23.30;65.20;;;;;;8506872;27;20868;-50
2023/08/29 06:08:20;;;;;;;;;;;23.30;65.50;;;;;;8543059;27;19923;-51
2023/08/29 06:12:20;;;;;;;;;;;23.30;65.40;;;;;;8560783;27;19911;-52
2023/08/29 06:16:21;;;;;;;;;;;23.40;65.30;;;;;;8565440;27;19996;-49
2023/08/29 06:20:22;;;;;;;;;;;23.30;65.40;;;;;;8529521;27;20400;-52
2023/08/29 06:24:22;;;;;;;;;;;23.30;65.40;;;;;;8530763;27;19911;-48
2023/08/29 06:28:23;;;;;;;;;;;23.30;65.30;;;;;;8478353;27;20072;-52
2023/08/29 06:32:23;;;;;;;;;;;23.30;65.40;;;;;;8496420;27;20006;-52
2023/08/29 06:36:24;;;;;;;;;;;23.30;65.20;;;;;;8496009;27;19912;-50
2023/08/29 06:40:24;;;;;;;;;;;23.30;65.20;;;;;;8496195;27;19912;-50
2023/08/29 06:44:25;;;;;;;;;;;23.30;65.20;;;;;;8495594;27;19911;-51
2023/08/29 06:48:25;;;;;;;;;;;23.30;65.20;;;;;;8495576;27;20412;-51
2023/08/29 06:52:26;;;;;;;;;;;23.30;65.20;;;;;;8495719;27;19964;-50
2023/08/29 06:56:26;;;;;;;;;;;23.30;65.10;;;;;;8495614;27;20364;-51
2023/08/29 07:00:27;;;;;;;;;;;23.30;65.10;;;;;;8495147;27;20476;-50
2023/08/29 07:04:28;;;;;;;;;;;23.30;65.10;;;;;;8476924;27;20397;-50
2023/08/29 07:08:28;;;;;;;;;;;23.30;65.20;;;;;;8476426;27;19980;-50
2023/08/29 07:12:29;;;;;;;;;;;23.30;65.20;;;;;;8494878;27;19955;-49
2023/08/29 07:16:31;;;;;;;;;;;23.20;65.10;;;;;;8494853;27;19920;-51
2023/08/29 07:20:32;;;;;;;;;;;23.20;65.10;;;;;;8494663;27;19912;-52
2023/08/29 07:24:33;;;;;;;;;;;23.20;65.10;;;;;;8494382;27;19908;-52
2023/08/29 07:28:33;;;;;;;;;;;23.30;65.10;;;;;;8494741;27;19971;-51
2023/08/29 07:32:34;;;;;;;;;;;23.30;65.10;;;;;;8494345;27;20006;-52
2023/08/29 07:36:34;;;;;;;;;;;23.30;65.10;;;;;;8494711;27;19923;-50
2023/08/29 07:40:35;;;;;;;;;;;23.30;65.00;;;;;;8494573;28;19988;-51
2023/08/29 07:44:35;;;;;;;;;;;23.30;65.00;;;;;;8494282;28;19915;-50
2023/08/29 07:48:36;;;;;;;;;;;23.20;65.00;;;;;;8494497;28;20008;-51
2023/08/29 07:52:37;;;;;;;;;;;23.30;65.00;;;;;;8494362;28;19911;-52
2023/08/29 07:56:37;;;;;;;;;;;23.20;64.90;;;;;;8494289;27;19915;-51
2023/08/29 08:00:38;;;;;;;;;;;23.30;65.00;;;;;;8494345;28;19918;-52
2023/08/29 08:04:39;;;;;;;;;;;23.20;64.90;;;;;;8493989;28;19918;-49
2023/08/29 08:08:39;;;;;;;;;;;23.30;64.90;;;;;;8494005;28;19915;-51
2023/08/29 08:12:40;;;;;;;;;;;23.20;64.80;;;;;;8493794;28;19919;-52
2023/08/29 08:16:41;;;;;;;;;;;23.20;65.60;;;;;;8493827;28;19911;-51
2023/08/29 08:20:42;;;;;;;;;;;23.20;64.80;;;;;;8475392;28;19915;-50
2023/08/29 08:24:42;;;;;;;;;;;23.20;64.90;;;;;;8494111;27;19911;-50
2023/08/29 08:28:43;;;;;;;;;;;23.20;65.00;;;;;;8493290;28;19922;-49
2023/08/29 08:32:44;;;;;;;;;;;23.20;65.00;;;;;;8493429;28;20026;-49
2023/08/29 08:36:44;;;;;;;;;;;23.20;65.00;;;;;;8480287;27;19918;-50
2023/08/29 08:40:45;;;;;;;;;;;23.20;64.90;;;;;;8481781;27;19911;-51
2023/08/29 08:44:45;;;;;;;;;;;23.20;64.90;;;;;;8499749;27;19912;-49
2023/08/29 08:48:46;;;;;;;;;;;23.20;64.80;;;;;;8499743;27;19923;-51
2023/08/29 08:52:46;;;;;;;;;;;23.30;64.90;;;;;;8499447;27;19911;-50
2023/08/29 08:56:47;;;;;;;;;;;23.20;64.90;;;;;;8499540;27;19912;-52
2023/08/29 09:00:48;;;;;;;;;;;23.20;64.80;;;;;;8499206;27;19907;-52
2023/08/29 09:04:49;;;;;;;;;;;23.20;64.80;;;;;;8514996;27;19955;-50
2023/08/29 09:08:49;;;;;;;;;;;23.20;64.80;;;;;;8498734;27;20426;-52
2023/08/29 09:12:51;;;;;;;;;;;23.20;64.80;;;;;;8498745;27;19934;-49
2023/08/29 09:16:59;;;;;;;;;;;23.30;64.90;;;;;;8480488;27;20016;-50
2023/08/29 09:21:00;;;;;;;;;;;23.20;64.80;;;;;;8498471;27;20399;-51
2023/08/29 09:25:02;;;;;;;;;;;23.30;64.80;;;;;;8481187;27;19919;-51
2023/08/29 09:29:24;;;;;;;;;;;23.20;64.80;;;;;;8498031;27;20002;-51
2023/08/29 09:33:24;;;;;;;;;;;23.30;64.80;;;;;;8497963;27;19915;-52
2023/08/29 09:37:25;;;;;;;;;;;23.20;64.80;;;;;;8498149;27;19963;-49
2023/08/29 09:41:26;;;;;;;;;;;23.20;64.80;;;;;;8497811;27;19911;-50
2023/08/29 09:45:33;;;;;;;;;;;23.20;64.80;;;;;;8497274;27;20385;-50
2023/08/29 09:49:43;;;;;;;;;;;23.20;64.80;;;;;;8498514;27;20382;-49
2023/08/29 09:53:44;;;;;;;;;;;23.20;64.80;;;;;;8499677;27;19911;-51
2023/08/29 09:57:46;;;;;;;;;;;23.20;64.80;;;;;;8499056;27;19919;-51
2023/08/29 10:01:46;;;;;;;;;;;23.20;64.80;;;;;;8500001;27;19960;-49
2023/08/29 10:05:49;;;;;;;;;;;23.20;64.80;;;;;;8498336;27;20425;-52
2023/08/29 10:09:51;;;;;;;;;;;23.30;64.90;;;;;;8499390;27;19911;-50
2023/08/29 10:13:52;;;;;;;;;;;23.20;64.80;;;;;;8498883;27;19943;-50
2023/08/29 10:17:52;;;;;;;;;;;23.20;64.80;;;;;;8498400;27;19924;-51
2023/08/29 10:21:53;;;;;;;;;;;23.20;64.80;;;;;;8498493;27;19912;-51
2023/08/29 10:25:54;;;;;;;;;;;23.20;64.80;;;;;;8497559;27;20344;-49
2023/08/29 10:29:55;;;;;;;;;;;23.20;64.80;;;;;;8498352;27;19999;-52
2023/08/29 10:33:56;;;;;;;;;;;23.20;64.70;;;;;;8497621;27;19911;-52
2023/08/29 10:38:02;;;;;;;;;;;23.20;64.70;;;;;;8514980;27;19968;-50
2023/08/29 10:42:03;;;;;;;;;;;23.20;64.70;;;;;;8497024;27;19907;-49
2023/08/29 10:46:10;;;;;;;;;;;23.20;64.70;;;;;;8480235;27;19918;-49
2023/08/29 10:50:15;;;;;;;;;;;23.20;64.70;;;;;;8497582;27;19998;-50
2023/08/29 10:54:16;;;;;;;;;;;23.20;64.80;;;;;;8497499;27;19914;-50
2023/08/29 10:58:37;;;;;;;;;;;23.20;64.80;;;;;;8497114;27;19911;-49
2023/08/29 11:02:41;;;;;;;;;;;23.20;64.80;;;;;;8495965;27;19918;-51
2023/08/29 11:06:54;;;;;;;;;;;23.20;64.80;;;;;;8497683;27;19907;-50
2023/08/29 11:11:18;;;;;;;;;;;23.10;64.70;;;;;;8497128;27;19918;-50
2023/08/29 11:15:20;;;;;;;;;;;23.10;64.70;;;;;;8496330;27;19909;-49
2023/08/29 11:19:22;;;;;;;;;;;23.20;64.70;;;;;;8497262;27;19927;-49
2023/08/29 11:23:23;;;;;;;;;;;23.20;64.80;;;;;;8495914;27;19915;-52
2023/08/29 11:27:28;;;;;;;;;;;23.20;64.80;;;;;;8497224;27;19923;-50
2023/08/29 11:31:29;;;;;;;;;;;23.20;65.60;;;;;;8495777;27;19918;-52
2023/08/29 11:35:31;;;;;;;;;;;23.20;64.70;;;;;;8496753;27;19914;-49
2023/08/29 11:39:31;;;;;;;;;;;23.20;64.70;;;;;;8496456;27;19958;-49
2023/08/29 11:43:32;;;;;;;;;;;23.20;64.70;;;;;;8496136;28;19912;-49
2023/08/29 11:47:33;;;;;;;;;;;23.20;64.70;;;;;;8496347;28;19956;-50
2023/08/29 11:51:33;;;;;;;;;;;23.20;64.70;;;;;;8495683;28;19916;-51
2023/08/29 11:55:34;;;;;;;;;;;23.20;64.70;;;;;;8496716;27;20384;-51
2023/08/29 11:59:35;;;;;;;;;;;23.20;64.60;;;;;;8495355;28;19908;-52
2023/08/29 12:03:36;;;;;;;;;;;23.20;64.60;;;;;;8496738;28;19908;-50
2023/08/29 12:07:37;;;;;;;;;;;23.20;64.70;;;;;;8495002;28;19911;-49
2023/08/29 12:11:41;;;;;;;;;;;23.20;64.80;;;;;;8483219;27;19919;-52
2023/08/29 12:15:42;;;;;;;;;;;23.10;64.70;;;;;;8502108;27;20295;-51
2023/08/29 12:19:42;;;;;;;;;;;23.10;64.70;;;;;;8502767;27;20401;-51
2023/08/29 12:23:43;;;;;;;;;;;23.20;64.80;;;;;;8502858;27;19918;-51
2023/08/29 12:27:44;;;;;;;;;;;23.10;64.60;;;;;;8502057;27;19920;-51
2023/08/29 12:31:45;;;;;;;;;;;23.20;64.70;;;;;;8502435;27;19932;-51
2023/08/29 12:35:46;;;;;;;;;;;23.20;64.70;;;;;;8501110;27;19918;-51
2023/08/29 12:39:46;;;;;;;;;;;23.20;64.70;;;;;;8502522;27;19962;-52
2023/08/29 12:43:47;;;;;;;;;;;23.10;64.60;;;;;;8501155;27;20006;-52
2023/08/29 12:47:47;;;;;;;;;;;23.20;64.60;;;;;;8501911;27;19922;-50
2023/08/29 12:51:48;;;;;;;;;;;23.20;64.60;;;;;;8482196;27;19911;-51
2023/08/29 12:55:50;;;;;;;;;;;23.20;64.70;;;;;;8522602;27;19955;-51
2023/08/29 12:59:51;;;;;;;;;;;23.20;64.60;;;;;;8534142;27;19911;-52
2023/08/29 13:03:51;;;;;;;;;;;23.20;64.60;;;;;;8535382;27;19926;-50
2023/08/29 13:07:52;;;;;;;;;;;23.20;64.40;;;;;;8533894;27;19955;-52
2023/08/29 13:11:52;;;;;;;;;;;23.20;64.30;;;;;;8534210;27;20279;-51
2023/08/29 13:15:53;;;;;;;;;;;23.20;64.10;;;;;;8534113;27;19915;-50
2023/08/29 13:19:53;;;;;;;;;;;23.20;64.90;;;;;;8518978;27;19970;-49
2023/08/29 13:23:54;;;;;;;;;;;23.20;64.00;;;;;;8516485;27;19912;-49
2023/08/29 13:27:57;;;;;;;;;;;23.20;63.80;;;;;;8515318;27;20225;-50
2023/08/29 13:31:58;;;;;;;;;;;23.20;63.70;;;;;;8516884;27;19919;-51
2023/08/29 13:35:59;;;;;;;;;;;23.20;63.70;;;;;;8497252;27;19919;-52
2023/08/29 13:39:59;;;;;;;;;;;23.20;63.60;;;;;;8516900;27;19918;-51
2023/08/29 13:44:00;;;;;;;;;;;23.20;63.70;;;;;;8497488;27;19911;-49
2023/08/29 13:48:01;;;;;;;;;;;23.20;63.50;;;;;;8516073;27;19915;-49
2023/08/29 13:52:01;;;;;;;;;;;23.20;64.20;;;;;;8513617;27;19942;-51
2023/08/29 13:56:02;;;;;;;;;;;23.20;63.60;;;;;;8517411;27;20368;-51
2023/08/29 14:00:03;;;;;;;;;;;23.20;63.40;;;;;;8516429;27;20261;-52
2023/08/29 14:04:03;;;;;;;;;;;23.20;63.30;;;;;;8514568;27;20074;-51
2023/08/29 14:08:04;;;;;;;;;;;23.20;63.30;;;;;;8513534;27;19915;-50
2023/08/29 14:12:05;;;;;;;;;;;23.20;63.20;;;;;;8513141;27;20013;-50
2023/08/29 14:16:05;;;;;;;;;;;23.20;63.20;;;;;;8516602;27;19919;-50
2023/08/29 14:20:06;;;;;;;;;;;23.20;63.00;;;;;;8514294;27;19922;-48
2023/08/29 14:24:07;;;;;;;;;;;23.20;62.90;;;;;;8515485;27;19915;-51
2023/08/29 14:28:08;;;;;;;;;;;23.20;62.80;;;;;;8502825;27;20390;-51
2023/08/29 14:32:08;;;;;;;;;;;23.20;63.60;;;;;;8498022;27;19919;-50
2023/08/29 14:36:09;;;;;;;;;;;23.10;62.60;;;;;;8487418;27;19911;-50
2023/08/29 14:40:09;;;;;;;;;;;23.10;62.40;;;;;;8482282;27;19908;-51
2023/08/29 14:44:10;;;;;;;;;;;23.20;62.30;;;;;;8482026;27;19986;-49
2023/08/29 14:48:11;;;;;;;;;;;23.20;62.20;;;;;;8462988;28;20311;-50
2023/08/29 14:52:12;;;;;;;;;;;23.20;62.10;;;;;;8476344;27;19908;-49
2023/08/29 14:56:12;;;;;;;;;;;23.20;62.10;;;;;;8481912;27;19907;-50
2023/08/29 15:00:13;;;;;;;;;;;23.20;62.10;;;;;;8464126;28;20326;-51
2023/08/29 15:04:16;;;;;;;;;;;23.20;62.10;;;;;;8470441;27;19922;-50
2023/08/29 15:08:17;;;;;;;;;;;23.20;62.10;;;;;;8513467;27;19919;-49
2023/08/29 15:12:17;;;;;;;;;;;23.30;62.20;;;;;;8490386;27;20041;-48
2023/08/29 15:16:18;;;;;;;;;;;23.30;62.20;;;;;;8478951;27;19922;-49
2023/08/29 15:20:19;;;;;;;;;;;23.30;62.20;;;;;;8508732;27;19919;-48
2023/08/29 15:24:19;;;;;;;;;;;23.30;62.10;;;;;;8530718;27;20379;-51
2023/08/29 15:28:21;;;;;;;;;;;23.30;62.10;;;;;;8496877;27;19959;-50
2023/08/29 15:32:21;;;;;;;;;;;23.30;62.10;;;;;;8496615;27;19915;-50
2023/08/29 15:36:22;;;;;;;;;;;23.30;62.20;;;;;;8515933;27;20379;-49
2023/08/29 15:40:23;;;;;;;;;;;23.30;62.10;;;;;;8530756;27;19936;-51
2023/08/29 15:44:23;;;;;;;;;;;23.30;62.10;;;;;;8530278;27;20017;-51
2023/08/29 15:48:24;;;;;;;;;;;23.30;62.10;;;;;;8511174;27;20363;-51
2023/08/29 15:52:24;;;;;;;;;;;23.30;62.20;;;;;;8530863;27;19984;-49
2023/08/29 15:56:25;;;;;;;;;;;23.20;62.10;;;;;;8494972;28;19956;-51
2023/08/29 16:00:26;;;;;;;;;;;23.30;62.20;;;;;;8495857;28;19907;-50
2023/08/29 16:04:26;;;;;;;;;;;23.30;62.20;;;;;;8496451;28;19946;-51
2023/08/29 16:08:27;;;;;;;;;;;23.30;62.20;;;;;;8509457;27;19955;-51
2023/08/29 16:12:29;;;;;;;;;;;23.30;62.50;;;;;;8519090;27;19911;-51
2023/08/29 16:16:30;;;;;;;;;;;23.30;62.80;;;;;;8509347;27;20425;-50
2023/08/29 16:20:30;;;;;;;;;;;23.30;62.90;;;;;;8529227;27;20385;-52
2023/08/29 16:24:31;;;;;;;;;;;23.40;62.90;;;;;;8528049;27;19915;-51
2023/08/29 16:28:32;;;;;;;;;;;23.40;63.10;;;;;;8499032;27;20061;-54
2023/08/29 16:32:33;;;;;;;;;;;23.40;63.40;;;;;;8527722;27;19952;-55
2023/08/29 16:36:33;;;;;;;;;;;23.40;63.90;;;;;;8516790;27;19919;-49
2023/08/29 16:40:34;;;;;;;;;;;23.40;64.10;;;;;;8501634;27;19915;-53
2023/08/29 16:44:35;;;;;;;;;;;23.40;64.30;;;;;;8529291;27;19918;-54
2023/08/29 16:48:35;;;;;;;;;;;23.50;64.20;;;;;;8523648;27;19929;-53
2023/08/29 16:52:36;;;;;;;;;;;23.50;64.10;;;;;;8528493;27;19919;-54
2023/08/29 16:56:36;;;;;;;;;;;23.50;64.00;;;;;;8512046;27;19979;-52
2023/08/29 17:00:37;;;;;;;;;;;23.40;64.10;;;;;;8500035;27;19960;-50
2023/08/29 17:04:38;;;;;;;;;;;23.50;64.20;;;;;;8501134;27;20330;-53
2023/08/29 17:08:38;;;;;;;;;;;23.40;64.30;;;;;;8499847;27;20026;-51
2023/08/29 17:12:39;;;;;;;;;;;23.40;64.30;;;;;;8500940;27;19972;-53
2023/08/29 17:16:40;;;;;;;;;;;23.40;64.20;;;;;;8518152;27;19914;-50
2023/08/29 17:20:41;;;;;;;;;;;23.40;64.20;;;;;;8534971;27;20664;-54
2023/08/29 17:24:41;;;;;;;;;;;23.40;64.20;;;;;;8515933;27;20300;-50
2023/08/29 17:28:42;;;;;;;;;;;23.40;63.90;;;;;;8504966;27;19919;-51
2023/08/29 17:32:43;;;;;;;;;;;23.40;63.80;;;;;;8489142;27;19935;-49
2023/08/29 17:36:43;;;;;;;;;;;23.40;63.90;;;;;;8498637;27;20333;-49
2023/08/29 17:40:44;;;;;;;;;;;23.40;64.10;;;;;;8500040;27;19908;-52
2023/08/29 17:44:50;;;;;;;;;;;23.40;64.50;;;;;;8498481;27;20434;-52
2023/08/29 17:48:50;;;;;;;;;;;23.50;64.60;;;;;;8520531;27;19923;-52
2023/08/29 17:52:51;;;;;;;;;;;23.50;64.80;;;;;;8527665;27;20013;-51
2023/08/29 17:56:51;;;;;;;;;;;23.50;65.20;;;;;;8527238;27;19960;-51
2023/08/29 18:00:52;;;;;;;;;;;23.60;65.60;;;;;;8526931;27;19955;-53
2023/08/29 18:04:53;;;;;;;;;;;23.60;66.20;;;;;;8526822;27;19919;-52
2023/08/29 18:08:54;;;;;;;;;;;23.60;66.80;;;;;;8524426;27;19966;-53
2023/08/29 18:12:55;;;;;;;;;;;23.70;67.20;;;;;;8526385;27;20395;-45
2023/08/29 18:16:55;;;;;;;;;;;23.70;67.00;;;;;;8526964;27;20336;-57
2023/08/29 18:20:57;;;;;;;;;;;23.70;67.20;;;;;;8541476;27;19923;-55
2023/08/29 18:24:57;;;;;;;;;;;23.80;67.90;;;;;;8544047;27;19917;-49
2023/08/29 18:28:58;;;;;;;;;;;23.80;66.70;;;;;;8543012;27;19923;-50
2023/08/29 18:32:58;;;;;;;;;;;23.80;67.30;;;;;;8542709;27;19930;-51
2023/08/29 18:36:59;;;;;;;;;;;23.80;66.70;;;;;;8543679;27;19918;-51
2023/08/29 18:40:59;;;;;;;;;;;23.80;66.80;;;;;;8539714;27;19960;-59
2023/08/29 18:45:00;;;;;;;;;;;23.70;66.30;;;;;;8539875;27;19927;-47
2023/08/29 18:49:00;;;;;;;;;;;23.70;66.70;;;;;;8542394;27;20517;-48
2023/08/29 18:53:01;;;;;;;;;;;23.80;67.10;;;;;;8539847;27;20009;-49
2023/08/29 18:57:02;;;;;;;;;;;23.80;66.60;;;;;;8542406;27;20395;-49
2023/08/29 19:01:03;;;;;;;;;;;23.90;66.80;;;;;;8542140;27;19954;-48
2023/08/29 19:05:03;;;;;;;;;;;23.90;66.40;;;;;;8543276;27;19911;-51
2023/08/29 19:09:04;;;;;;;;;;;23.90;66.60;;;;;;8542208;27;19995;-50
2023/08/29 19:13:05;;;;;;;;;;;24.00;66.40;;;;;;8541870;27;19918;-50
2023/08/29 19:17:07;;;;;;;;;;;24.00;67.50;;;;;;8542111;27;20354;-51
2023/08/29 19:21:08;;;;;;;;;;;24.10;68.60;;;;;;8506288;27;19923;-48
2023/08/29 19:25:08;;;;;;;;;;;24.10;68.60;;;;;;8508375;27;19959;-52
2023/08/29 19:29:09;;;;;;;;;;;24.10;68.80;;;;;;8507343;27;19915;-53
2023/08/29 19:33:11;;;;;;;;;;;24.20;68.60;;;;;;8508515;27;20402;-53
2023/08/29 19:37:11;;;;;;;;;;;24.10;68.10;;;;;;8507947;27;19958;-52
2023/08/29 19:41:13;;;;;;;;;;;24.20;67.50;;;;;;8507785;27;19930;-52
2023/08/29 19:45:14;;;;;;;;;;;24.10;68.30;;;;;;8508063;27;19912;-55
2023/08/29 19:49:14;;;;;;;;;;;24.10;68.30;;;;;;8507207;27;20300;-55
2023/08/29 19:53:15;;;;;;;;;;;24.10;67.80;;;;;;8508106;27;19911;-53
2023/08/29 19:57:16;;;;;;;;;;;24.00;68.20;;;;;;8507147;27;19968;-55
2023/08/29 20:01:16;;;;;;;;;;;24.00;67.40;;;;;;8506324;27;20018;-54
2023/08/29 20:05:17;;;;;;;;;;;24.00;68.00;;;;;;8507470;27;20342;-53
2023/08/29 20:09:17;;;;;;;;;;;24.00;67.90;;;;;;8507650;27;19923;-50
2023/08/29 20:13:18;;;;;;;;;;;24.00;67.20;;;;;;8506893;27;20012;-51
2023/08/29 20:17:19;;;;;;;;;;;24.00;67.10;;;;;;8506705;27;19929;-53
2023/08/29 20:21:19;;;;;;;;;;;24.00;67.30;;;;;;8522133;27;19927;-52
2023/08/29 20:25:20;;;;;;;;;;;24.00;67.50;;;;;;8520729;27;19919;-50
2023/08/29 20:29:23;;;;;;;;;;;24.00;67.40;;;;;;8520660;27;19922;-54
2023/08/29 20:33:24;;;;;;;;;;;24.00;67.70;;;;;;8528827;27;19923;-53
2023/08/29 20:37:24;;;;;;;;;;;24.00;67.80;;;;;;8528971;27;20395;-51
2023/08/29 20:41:25;;;;;;;;;;;24.10;68.00;;;;;;8526697;27;19930;-53
2023/08/29 20:45:25;;;;;;;;;;;24.10;68.00;;;;;;8510808;27;20411;-53
2023/08/29 20:49:26;;;;;;;;;;;24.00;68.00;;;;;;8528644;27;19927;-54
2023/08/29 20:53:30;;;;;;;;;;;24.00;68.00;;;;;;8528667;27;19919;-53
2023/08/29 20:57:31;;;;;;;;;;;24.00;68.00;;;;;;8526760;27;19911;-54
2023/08/29 21:01:32;;;;;;;;;;;24.10;67.90;;;;;;8527571;27;20375;-51
2023/08/29 21:05:35;;;;;;;;;;;24.00;67.60;;;;;;8527286;27;19919;-52
2023/08/29 21:09:36;;;;;;;;;;;24.10;67.80;;;;;;8525958;27;19931;-50
2023/08/29 21:13:37;;;;;;;;;;;24.10;67.70;;;;;;8527511;27;19938;-51
2023/08/29 21:17:37;;;;;;;;;;;24.00;67.30;;;;;;8525913;27;19923;-53
2023/08/29 21:21:38;;;;;;;;;;;24.00;67.20;;;;;;8525031;27;20371;-50
2023/08/29 21:25:40;;;;;;;;;;;24.00;66.90;;;;;;8525573;27;19918;-52
2023/08/29 21:29:42;;;;;;;;;;;23.90;66.90;;;;;;8528239;27;19981;-51
2023/08/29 21:33:43;;;;;;;;;;;24.00;67.00;;;;;;8523378;27;19915;-51
2023/08/29 21:37:43;;;;;;;;;;;24.00;66.80;;;;;;8522913;27;19927;-50
2023/08/29 21:41:44;;;;;;;;;;;24.00;67.20;;;;;;8522508;27;20380;-52
2023/08/29 21:45:51;;;;;;;;;;;24.00;68.10;;;;;;8525873;27;20293;-50
2023/08/29 21:49:51;;;;;;;;;;;24.00;71.80;;;;;;8525633;27;19938;-50
2023/08/29 21:53:52;;;;;;;;;;;24.00;72.20;;;;;;8521734;27;19915;-50
2023/08/29 21:57:52;;;;;;;;;;;24.00;70.50;;;;;;8522051;27;19911;-53
2023/08/29 22:01:53;;;;;;;;;;;23.90;69.70;;;;;;8507623;27;20037;-57
2023/08/29 22:05:53;;;;;;;;;;;24.00;69.40;;;;;;8525149;27;19926;-50
2023/08/29 22:09:54;;;;;;;;;;;24.00;68.90;;;;;;8522316;27;20371;-52
2023/08/29 22:13:55;;;;;;;;;;;24.00;68.80;;;;;;8524383;27;19927;-50
2023/08/29 22:17:55;;;;;;;;;;;23.90;68.20;;;;;;8522585;27;19930;-51
2023/08/29 22:21:56;;;;;;;;;;;23.90;68.10;;;;;;8525429;27;20371;-52
2023/08/29 22:25:56;;;;;;;;;;;23.90;68.30;;;;;;8505677;27;19927;-48
2023/08/29 22:29:57;;;;;;;;;;;23.90;68.10;;;;;;8522457;27;19926;-49
2023/08/29 22:33:58;;;;;;;;;;;23.70;65.10;;;;;;8524253;27;19941;-48
2023/08/29 22:37:58;;;;;;;;;;;23.50;65.20;;;;;;8519345;27;19920;-53
2023/08/29 22:41:59;;;;;;;;;;;23.50;65.00;;;;;;8522060;27;19912;-48
2023/08/29 22:46:00;;;;;;;;;;;23.50;63.80;;;;;;8525806;27;19915;-48
2023/08/29 22:50:00;;;;;;;;;;;23.50;63.80;;;;;;8527625;27;19919;-48
2023/08/29 22:54:01;;;;;;;;;;;23.40;60.50;;;;;;8527540;27;19936;-50
2023/08/29 22:58:01;;;;;;;;;;;23.30;61.60;;;;;;8497213;27;19915;-49
2023/08/29 23:02:02;;;;;;;;;;;23.30;60.20;;;;;;8494972;27;19916;-50
2023/08/29 23:06:03;;;;;;;;;;;23.30;59.90;;;;;;8477129;27;19912;-49
2023/08/29 23:10:04;;;;;;;;;;;23.40;60.00;;;;;;8495729;27;19946;-49
2023/08/29 23:14:05;;;;;;;;;;;23.30;60.20;;;;;;8495242;27;20379;-51
2023/08/29 23:18:05;;;;;;;;;;;23.40;60.40;;;;;;8494968;27;19926;-51
2023/08/29 23:22:06;;;;;;;;;;;23.40;60.60;;;;;;8494939;27;19919;-50